createdAt,value
2022-11-06T00:00:37.698Z,855.44
2022-11-06T00:01:37.753Z,855.46
2022-11-06T00:02:37.768Z,855.44
2022-11-06T00:03:37.674Z,855.47
2022-11-06T00:04:37.663Z,855.54
2022-11-06T00:05:37.669Z,855.55
2022-11-06T00:06:37.673Z,855.52
2022-11-06T00:07:37.618Z,855.57
2022-11-06T00:08:37.609Z,855.47
2022-11-06T00:09:37.596Z,855.49
2022-11-06T00:10:37.585Z,855.48
2022-11-06T00:11:37.585Z,855.46
2022-11-06T00:12:37.590Z,855.46
2022-11-06T00:13:37.569Z,855.44
2022-11-06T00:14:37.547Z,855.46
2022-11-06T00:15:37.533Z,855.48
2022-11-06T00:16:37.533Z,855.47
2022-11-06T00:17:37.511Z,855.42
2022-11-06T00:18:37.517Z,855.41
2022-11-06T00:19:37.489Z,855.42
2022-11-06T00:20:37.496Z,855.38
2022-11-06T00:21:37.482Z,855.37
2022-11-06T00:22:37.456Z,855.34
2022-11-06T00:23:37.450Z,855.25
2022-11-06T00:24:37.433Z,855.26
2022-11-06T00:25:37.426Z,855.25
2022-11-06T00:26:37.439Z,855.23
2022-11-06T00:27:37.410Z,855.23
2022-11-06T00:28:37.398Z,855.23
2022-11-06T00:29:37.398Z,855.17
2022-11-06T00:30:37.369Z,855.19
2022-11-06T00:31:37.365Z,855.13
2022-11-06T00:32:37.363Z,855.09
2022-11-06T00:33:37.340Z,855.07
2022-11-06T00:34:37.347Z,855.06
2022-11-06T00:35:37.334Z,855.02
2022-11-06T00:36:37.427Z,855.00
2022-11-06T00:37:37.309Z,854.97
2022-11-06T00:38:37.333Z,854.92
2022-11-06T00:39:37.276Z,854.85
2022-11-06T00:40:37.262Z,854.82
2022-11-06T00:41:37.253Z,854.81
2022-11-06T00:42:37.249Z,854.78
2022-11-06T00:43:37.233Z,854.77
2022-11-06T00:44:37.228Z,854.77
2022-11-06T00:45:37.336Z,854.79
2022-11-06T00:46:37.205Z,854.79
2022-11-06T00:47:37.187Z,854.86
2022-11-06T00:48:37.175Z,854.83
2022-11-06T00:49:37.168Z,854.84
2022-11-06T00:50:37.176Z,854.87
2022-11-06T00:51:37.167Z,854.84
2022-11-06T00:52:37.135Z,854.82
2022-11-06T00:53:37.125Z,854.84
2022-11-06T00:54:37.149Z,854.79
2022-11-06T00:55:37.117Z,854.84
2022-11-06T00:56:37.090Z,854.75
2022-11-06T00:57:37.170Z,854.75
2022-11-06T00:58:37.068Z,854.74
2022-11-06T00:59:37.072Z,854.74
2022-11-06T01:00:37.045Z,854.70
2022-11-06T01:01:37.186Z,854.74
2022-11-06T01:02:37.180Z,854.72
2022-11-06T01:03:37.032Z,854.74
2022-11-06T01:04:37.005Z,854.74
2022-11-06T01:05:36.997Z,854.73
2022-11-06T01:06:37.001Z,854.79
2022-11-06T01:07:36.976Z,854.79
2022-11-06T01:08:37.067Z,854.86
2022-11-06T01:09:36.961Z,854.89
2022-11-06T01:10:36.938Z,854.88
2022-11-06T01:11:59.320Z,854.89
2022-11-06T01:12:37.916Z,854.88
2022-11-06T01:13:36.909Z,854.94
2022-11-06T01:14:37.010Z,854.92
2022-11-06T01:15:36.887Z,855.00
2022-11-06T01:16:36.878Z,854.97
2022-11-06T01:17:36.869Z,854.97
2022-11-06T01:18:36.852Z,854.96
2022-11-06T01:19:36.858Z,855.01
2022-11-06T01:20:36.938Z,854.99
2022-11-06T01:21:36.824Z,855.14
2022-11-06T01:22:36.830Z,855.19
2022-11-06T01:23:36.801Z,855.18
2022-11-06T01:24:36.867Z,855.20
2022-11-06T01:25:36.798Z,855.22
2022-11-06T01:26:39.235Z,855.15
2022-11-06T01:27:37.757Z,855.13
2022-11-06T01:28:36.750Z,855.09
2022-11-06T01:29:36.735Z,855.12
2022-11-06T01:30:36.729Z,855.14
2022-11-06T01:31:36.740Z,855.11
2022-11-06T01:32:36.793Z,855.13
2022-11-06T01:33:36.698Z,855.15
2022-11-06T01:34:36.682Z,855.09
2022-11-06T01:35:36.674Z,855.16
2022-11-06T01:36:36.662Z,855.11
2022-11-06T01:37:36.666Z,855.17
2022-11-06T01:38:36.716Z,855.17
2022-11-06T01:39:36.629Z,855.17
2022-11-06T01:40:36.640Z,855.16
2022-11-06T01:41:36.615Z,855.14
2022-11-06T01:42:36.607Z,855.13
2022-11-06T01:43:36.587Z,855.12
2022-11-06T01:44:36.630Z,855.14
2022-11-06T01:45:36.568Z,855.14
2022-11-06T01:46:36.556Z,855.18
2022-11-06T01:47:36.550Z,855.16
2022-11-06T01:48:36.547Z,855.16
2022-11-06T01:49:36.541Z,855.15
2022-11-06T01:50:36.563Z,855.10
2022-11-06T01:51:36.501Z,855.09
2022-11-06T01:52:36.490Z,855.14
2022-11-06T01:53:36.482Z,855.12
2022-11-06T01:54:36.485Z,855.11
2022-11-06T01:55:36.475Z,855.15
2022-11-06T01:56:36.554Z,855.15
2022-11-06T01:57:36.436Z,855.16
2022-11-06T01:58:36.425Z,855.14
2022-11-06T01:59:36.415Z,855.12
2022-11-06T02:00:36.406Z,855.15
2022-11-06T02:01:36.701Z,855.12
2022-11-06T02:02:36.796Z,855.11
2022-11-06T02:03:36.373Z,855.16
2022-11-06T02:04:36.374Z,855.12
2022-11-06T02:05:36.365Z,855.16
2022-11-06T02:06:36.339Z,855.12
2022-11-06T02:07:36.329Z,855.11
2022-11-06T02:08:36.433Z,855.11
2022-11-06T02:09:36.320Z,855.09
2022-11-06T02:10:36.316Z,855.14
2022-11-06T02:11:36.288Z,855.07
2022-11-06T02:12:36.276Z,855.07
2022-11-06T02:13:36.266Z,855.03
2022-11-06T02:14:36.347Z,855.04
2022-11-06T02:15:36.247Z,855.00
2022-11-06T02:16:36.237Z,855.05
2022-11-06T02:17:36.224Z,854.99
2022-11-06T02:18:36.216Z,854.98
2022-11-06T02:19:36.202Z,854.97
2022-11-06T02:20:36.343Z,854.92
2022-11-06T02:21:36.179Z,854.88
2022-11-06T02:22:36.169Z,854.87
2022-11-06T02:23:36.159Z,854.89
2022-11-06T02:24:36.153Z,854.86
2022-11-06T02:25:36.151Z,854.87
2022-11-06T02:26:36.241Z,854.87
2022-11-06T02:27:36.115Z,854.81
2022-11-06T02:28:36.102Z,854.81
2022-11-06T02:29:36.097Z,854.80
2022-11-06T02:30:36.093Z,854.76
2022-11-06T02:31:36.073Z,854.77
2022-11-06T02:32:36.158Z,854.74
2022-11-06T02:33:36.049Z,854.75
2022-11-06T02:34:36.038Z,854.75
2022-11-06T02:35:36.027Z,854.72
2022-11-06T02:36:36.051Z,854.74
2022-11-06T02:37:36.007Z,854.68
2022-11-06T02:38:36.085Z,854.66
2022-11-06T02:39:35.988Z,854.62
2022-11-06T02:40:35.982Z,854.61
2022-11-06T02:41:35.971Z,854.59
2022-11-06T02:42:36.063Z,854.53
2022-11-06T02:43:35.940Z,854.55
2022-11-06T02:44:36.001Z,854.53
2022-11-06T02:45:35.943Z,854.50
2022-11-06T02:46:35.952Z,854.52
2022-11-06T02:47:35.895Z,854.51
2022-11-06T02:48:35.895Z,854.57
2022-11-06T02:49:35.878Z,854.49
2022-11-06T02:50:35.874Z,854.49
2022-11-06T02:51:35.850Z,854.49
2022-11-06T02:52:35.848Z,854.46
2022-11-06T02:53:35.864Z,854.50
2022-11-06T02:54:35.815Z,854.51
2022-11-06T02:55:35.807Z,854.50
2022-11-06T02:56:35.807Z,854.48
2022-11-06T02:57:35.785Z,854.48
2022-11-06T02:58:38.789Z,854.49
2022-11-06T02:59:35.765Z,854.51
2022-11-06T03:00:35.753Z,854.48
2022-11-06T03:01:35.906Z,854.46
2022-11-06T03:02:35.972Z,854.46
2022-11-06T03:03:35.724Z,854.42
2022-11-06T03:04:35.739Z,854.45
2022-11-06T03:05:35.699Z,854.36
2022-11-06T03:06:35.687Z,854.38
2022-11-06T03:07:35.685Z,854.37
2022-11-06T03:08:35.676Z,854.34
2022-11-06T03:09:35.652Z,854.35
2022-11-06T03:10:35.660Z,854.35
2022-11-06T03:11:35.634Z,854.36
2022-11-06T03:12:35.622Z,854.38
2022-11-06T03:13:35.624Z,854.40
2022-11-06T03:14:35.710Z,854.38
2022-11-06T03:15:35.600Z,854.44
2022-11-06T03:16:35.573Z,854.43
2022-11-06T03:17:35.565Z,854.37
2022-11-06T03:18:35.551Z,854.41
2022-11-06T03:19:35.557Z,854.43
2022-11-06T03:20:35.580Z,854.40
2022-11-06T03:21:35.531Z,854.43
2022-11-06T03:22:35.507Z,854.42
2022-11-06T03:23:35.497Z,854.47
2022-11-06T03:24:35.496Z,854.51
2022-11-06T03:25:35.477Z,854.44
2022-11-06T03:26:35.481Z,854.46
2022-11-06T03:27:35.476Z,854.41
2022-11-06T03:28:35.453Z,854.43
2022-11-06T03:29:35.431Z,854.42
2022-11-06T03:30:35.440Z,854.37
2022-11-06T03:31:35.411Z,854.34
2022-11-06T03:32:35.398Z,854.30
2022-11-06T03:33:35.419Z,854.35
2022-11-06T03:34:35.409Z,854.27
2022-11-06T03:35:35.367Z,854.28
2022-11-06T03:36:35.351Z,854.24
2022-11-06T03:37:35.347Z,854.25
2022-11-06T03:38:39.634Z,854.16
2022-11-06T03:39:36.332Z,854.18
2022-11-06T03:40:35.331Z,854.17
2022-11-06T03:41:35.302Z,854.15
2022-11-06T03:42:35.287Z,854.18
2022-11-06T03:43:35.284Z,854.17
2022-11-06T03:44:35.275Z,854.13
2022-11-06T03:45:35.257Z,854.18
2022-11-06T03:46:35.289Z,854.19
2022-11-06T03:47:35.246Z,854.15
2022-11-06T03:48:35.220Z,854.18
2022-11-06T03:49:35.220Z,854.14
2022-11-06T03:50:35.209Z,854.17
2022-11-06T03:51:35.191Z,854.12
2022-11-06T03:52:35.191Z,854.13
2022-11-06T03:53:35.176Z,854.16
2022-11-06T03:54:35.279Z,854.11
2022-11-06T03:55:35.152Z,854.09
2022-11-06T03:56:35.133Z,854.06
2022-11-06T03:57:35.123Z,854.05
2022-11-06T03:58:35.132Z,854.03
2022-11-06T03:59:35.109Z,853.98
2022-11-06T04:00:35.114Z,853.97
2022-11-06T04:01:35.228Z,853.96
2022-11-06T04:02:35.315Z,853.90
2022-11-06T04:03:35.056Z,853.92
2022-11-06T04:04:35.049Z,853.80
2022-11-06T04:05:35.049Z,853.85
2022-11-06T04:06:35.042Z,853.81
2022-11-06T04:07:35.024Z,853.81
2022-11-06T04:08:35.054Z,853.84
2022-11-06T04:09:35.028Z,853.83
2022-11-06T04:10:34.979Z,853.85
2022-11-06T04:11:34.977Z,853.84
2022-11-06T04:12:34.956Z,853.81
2022-11-06T04:13:34.947Z,853.81
2022-11-06T04:14:34.969Z,853.87
2022-11-06T04:15:34.939Z,853.82
2022-11-06T04:16:34.914Z,853.84
2022-11-06T04:17:35.011Z,853.90
2022-11-06T04:18:34.948Z,853.85
2022-11-06T04:19:34.935Z,853.84
2022-11-06T04:20:34.871Z,853.90
2022-11-06T04:21:34.878Z,853.86
2022-11-06T04:22:34.846Z,853.85
2022-11-06T04:23:36.731Z,853.81
2022-11-06T04:24:34.912Z,853.73
2022-11-06T04:25:34.816Z,853.73
2022-11-06T04:26:34.807Z,853.69
2022-11-06T04:27:34.803Z,853.72
2022-11-06T04:28:34.785Z,853.71
2022-11-06T04:29:34.771Z,853.77
2022-11-06T04:30:34.860Z,853.76
2022-11-06T04:31:34.749Z,853.76
2022-11-06T04:32:34.750Z,853.79
2022-11-06T04:33:34.728Z,853.80
2022-11-06T04:34:34.825Z,853.83
2022-11-06T04:35:34.704Z,853.88
2022-11-06T04:36:34.792Z,853.87
2022-11-06T04:37:34.683Z,853.88
2022-11-06T04:38:34.675Z,853.96
2022-11-06T04:39:34.662Z,853.89
2022-11-06T04:40:34.684Z,853.87
2022-11-06T04:41:34.955Z,853.83
2022-11-06T04:42:34.801Z,853.82
2022-11-06T04:43:34.621Z,853.80
2022-11-06T04:44:34.606Z,853.80
2022-11-06T04:45:34.594Z,853.81
2022-11-06T04:46:34.597Z,853.80
2022-11-06T04:47:34.589Z,853.81
2022-11-06T04:48:34.607Z,853.74
2022-11-06T04:49:34.567Z,853.76
2022-11-06T04:50:34.567Z,853.71
2022-11-06T04:51:34.542Z,853.74
2022-11-06T04:52:34.519Z,853.71
2022-11-06T04:53:34.504Z,853.76
2022-11-06T04:54:34.688Z,853.74
2022-11-06T04:55:34.486Z,853.74
2022-11-06T04:56:35.567Z,853.75
2022-11-06T04:57:34.464Z,853.75
2022-11-06T04:58:34.454Z,853.75
2022-11-06T04:59:34.455Z,853.76
2022-11-06T05:00:34.522Z,853.77
2022-11-06T05:01:34.539Z,853.78
2022-11-06T05:02:34.420Z,853.75
2022-11-06T05:03:34.413Z,853.74
2022-11-06T05:04:34.390Z,853.69
2022-11-06T05:05:34.375Z,853.69
2022-11-06T05:06:34.491Z,853.63
2022-11-06T05:07:34.354Z,853.66
2022-11-06T05:08:34.353Z,853.64
2022-11-06T05:09:34.445Z,853.67
2022-11-06T05:10:34.324Z,853.62
2022-11-06T05:11:34.309Z,853.65
2022-11-06T05:12:34.422Z,853.60
2022-11-06T05:13:34.289Z,853.62
2022-11-06T05:14:34.283Z,853.62
2022-11-06T05:15:34.280Z,853.64
2022-11-06T05:16:34.263Z,853.64
2022-11-06T05:17:36.680Z,853.66
2022-11-06T05:18:34.345Z,853.65
2022-11-06T05:19:34.224Z,853.67
2022-11-06T05:20:34.216Z,853.63
2022-11-06T05:21:34.215Z,853.63
2022-11-06T05:22:34.312Z,853.63
2022-11-06T05:23:34.183Z,853.64
2022-11-06T05:24:34.274Z,853.65
2022-11-06T05:25:34.166Z,853.64
2022-11-06T05:26:34.152Z,853.63
2022-11-06T05:27:34.139Z,853.61
2022-11-06T05:28:34.136Z,853.58
2022-11-06T05:29:34.117Z,853.56
2022-11-06T05:30:34.330Z,853.60
2022-11-06T05:31:34.106Z,853.56
2022-11-06T05:32:34.085Z,853.55
2022-11-06T05:33:34.076Z,853.56
2022-11-06T05:34:34.064Z,853.54
2022-11-06T05:35:34.054Z,853.58
2022-11-06T05:36:34.174Z,853.57
2022-11-06T05:37:34.059Z,853.59
2022-11-06T05:38:34.047Z,853.55
2022-11-06T05:39:37.710Z,853.58
2022-11-06T05:40:35.002Z,853.55
2022-11-06T05:41:34.000Z,853.53
2022-11-06T05:42:34.085Z,853.57
2022-11-06T05:43:33.962Z,853.54
2022-11-06T05:44:33.955Z,853.57
2022-11-06T05:45:33.943Z,853.54
2022-11-06T05:46:50.237Z,853.54
2022-11-06T05:47:34.931Z,853.57
2022-11-06T05:48:34.054Z,853.53
2022-11-06T05:49:33.908Z,853.52
2022-11-06T05:50:33.894Z,853.55
2022-11-06T05:51:33.875Z,853.54
2022-11-06T05:52:33.870Z,853.58
2022-11-06T05:53:33.854Z,853.62
2022-11-06T05:54:33.931Z,853.60
2022-11-06T05:55:33.854Z,853.60
2022-11-06T05:56:33.829Z,853.66
2022-11-06T05:57:33.817Z,853.63
2022-11-06T05:58:33.958Z,853.61
2022-11-06T05:59:33.790Z,853.62
2022-11-06T06:00:33.799Z,853.62
2022-11-06T06:01:33.963Z,853.62
2022-11-06T06:02:33.878Z,853.62
2022-11-06T06:03:33.746Z,853.59
2022-11-06T06:04:33.754Z,853.60
2022-11-06T06:05:33.851Z,853.62
2022-11-06T06:06:33.717Z,853.63
2022-11-06T06:07:33.702Z,853.67
2022-11-06T06:08:33.694Z,853.65
2022-11-06T06:09:33.692Z,853.61
2022-11-06T06:10:33.765Z,853.60
2022-11-06T06:11:33.660Z,853.62
2022-11-06T06:12:33.656Z,853.63
2022-11-06T06:13:33.637Z,853.67
2022-11-06T06:14:33.635Z,853.64
2022-11-06T06:15:33.630Z,853.66
2022-11-06T06:16:33.705Z,853.66
2022-11-06T06:17:33.595Z,853.71
2022-11-06T06:18:33.600Z,853.66
2022-11-06T06:19:33.572Z,853.67
2022-11-06T06:20:33.563Z,853.70
2022-11-06T06:21:33.563Z,853.75
2022-11-06T06:22:33.625Z,853.73
2022-11-06T06:23:33.530Z,853.73
2022-11-06T06:24:33.571Z,853.71
2022-11-06T06:25:33.508Z,853.68
2022-11-06T06:26:33.527Z,853.70
2022-11-06T06:27:33.487Z,853.72
2022-11-06T06:28:33.607Z,853.75
2022-11-06T06:29:33.464Z,853.70
2022-11-06T06:30:33.456Z,853.73
2022-11-06T06:31:33.462Z,853.67
2022-11-06T06:32:33.435Z,853.64
2022-11-06T06:33:33.425Z,853.63
2022-11-06T06:34:33.465Z,853.65
2022-11-06T06:35:33.401Z,853.64
2022-11-06T06:36:33.392Z,853.66
2022-11-06T06:37:33.391Z,853.67
2022-11-06T06:38:33.392Z,853.65
2022-11-06T06:39:33.362Z,853.62
2022-11-06T06:40:33.461Z,853.66
2022-11-06T06:41:33.335Z,853.68
2022-11-06T06:42:33.441Z,853.66
2022-11-06T06:43:33.325Z,853.66
2022-11-06T06:44:33.334Z,853.67
2022-11-06T06:45:33.297Z,853.70
2022-11-06T06:46:33.363Z,853.73
2022-11-06T06:47:33.275Z,853.73
2022-11-06T06:48:33.276Z,853.75
2022-11-06T06:49:33.256Z,853.77
2022-11-06T06:50:33.257Z,853.79
2022-11-06T06:51:33.244Z,853.81
2022-11-06T06:52:33.335Z,853.82
2022-11-06T06:53:33.210Z,853.85
2022-11-06T06:54:33.204Z,853.87
2022-11-06T06:55:33.191Z,853.85
2022-11-06T06:56:33.180Z,853.88
2022-11-06T06:57:33.185Z,853.84
2022-11-06T06:58:33.290Z,853.83
2022-11-06T06:59:33.144Z,853.91
2022-11-06T07:00:33.156Z,853.88
2022-11-06T07:01:33.286Z,853.90
2022-11-06T07:02:33.169Z,853.90
2022-11-06T07:03:33.119Z,853.88
2022-11-06T07:04:33.202Z,853.92
2022-11-06T07:05:33.080Z,853.93
2022-11-06T07:06:33.070Z,853.97
2022-11-06T07:07:33.058Z,853.92
2022-11-06T07:08:33.057Z,853.94
2022-11-06T07:09:33.046Z,853.93
2022-11-06T07:10:33.080Z,853.96
2022-11-06T07:11:33.014Z,853.96
2022-11-06T07:12:33.005Z,853.98
2022-11-06T07:13:36.209Z,853.99
2022-11-06T07:14:33.002Z,853.99
2022-11-06T07:15:32.980Z,854.06
2022-11-06T07:16:32.982Z,853.99
2022-11-06T07:17:32.965Z,854.04
2022-11-06T07:18:32.939Z,854.01
2022-11-06T07:19:32.926Z,853.94
2022-11-06T07:20:33.027Z,853.98
2022-11-06T07:21:32.907Z,853.95
2022-11-06T07:22:37.301Z,853.94
2022-11-06T07:23:32.891Z,853.95
2022-11-06T07:24:32.878Z,853.95
2022-11-06T07:25:32.865Z,853.93
2022-11-06T07:26:32.876Z,853.95
2022-11-06T07:27:32.840Z,853.95
2022-11-06T07:28:32.929Z,853.95
2022-11-06T07:29:32.845Z,853.93
2022-11-06T07:30:32.875Z,853.90
2022-11-06T07:31:32.818Z,853.92
2022-11-06T07:32:32.787Z,853.97
2022-11-06T07:33:32.772Z,853.94
2022-11-06T07:34:32.791Z,853.90
2022-11-06T07:35:32.764Z,853.96
2022-11-06T07:36:32.742Z,853.90
2022-11-06T07:37:32.732Z,853.90
2022-11-06T07:38:32.720Z,853.97
2022-11-06T07:39:32.731Z,853.93
2022-11-06T07:40:32.719Z,853.98
2022-11-06T07:41:32.717Z,853.97
2022-11-06T07:42:32.699Z,853.96
2022-11-06T07:43:32.679Z,854.04
2022-11-06T07:44:32.664Z,854.06
2022-11-06T07:45:32.641Z,854.04
2022-11-06T07:46:32.654Z,854.06
2022-11-06T07:47:32.618Z,854.06
2022-11-06T07:48:32.623Z,854.08
2022-11-06T07:49:32.619Z,854.13
2022-11-06T07:50:32.599Z,854.11
2022-11-06T07:51:32.576Z,854.09
2022-11-06T07:52:32.567Z,854.10
2022-11-06T07:53:32.558Z,854.08
2022-11-06T07:54:32.545Z,853.99
2022-11-06T07:55:35.524Z,853.98
2022-11-06T07:56:33.536Z,853.92
2022-11-06T07:57:32.521Z,853.82
2022-11-06T07:58:32.500Z,853.82
2022-11-06T07:59:32.487Z,853.81
2022-11-06T08:00:32.494Z,853.77
2022-11-06T08:01:32.636Z,853.80
2022-11-06T08:02:32.558Z,853.78
2022-11-06T08:03:32.444Z,853.69
2022-11-06T08:04:32.446Z,853.66
2022-11-06T08:05:32.422Z,853.63
2022-11-06T08:06:32.428Z,853.54
2022-11-06T08:07:32.401Z,853.45
2022-11-06T08:08:32.398Z,853.41
2022-11-06T08:09:32.387Z,853.42
2022-11-06T08:10:32.383Z,853.37
2022-11-06T08:11:32.359Z,853.36
2022-11-06T08:12:32.363Z,853.42
2022-11-06T08:13:32.346Z,853.40
2022-11-06T08:14:33.706Z,853.38
2022-11-06T08:15:32.316Z,853.34
2022-11-06T08:16:32.327Z,853.36
2022-11-06T08:17:32.319Z,853.33
2022-11-06T08:18:32.312Z,853.26
2022-11-06T08:19:32.271Z,853.27
2022-11-06T08:20:32.260Z,853.23
2022-11-06T08:21:32.277Z,853.26
2022-11-06T08:22:32.250Z,853.21
2022-11-06T08:23:32.263Z,853.25
2022-11-06T08:24:32.228Z,853.27
2022-11-06T08:25:32.225Z,853.26
2022-11-06T08:26:32.211Z,853.25
2022-11-06T08:27:32.188Z,853.25
2022-11-06T08:28:32.174Z,853.21
2022-11-06T08:29:34.858Z,853.25
2022-11-06T08:30:33.152Z,853.21
2022-11-06T08:31:32.153Z,853.12
2022-11-06T08:32:32.144Z,853.13
2022-11-06T08:33:32.133Z,853.11
2022-11-06T08:34:32.220Z,853.14
2022-11-06T08:35:32.119Z,853.10
2022-11-06T08:36:32.089Z,853.18
2022-11-06T08:37:32.136Z,853.12
2022-11-06T08:38:32.081Z,853.13
2022-11-06T08:39:32.058Z,853.11
2022-11-06T08:40:32.098Z,853.15
2022-11-06T08:41:32.034Z,853.14
2022-11-06T08:42:32.133Z,853.06
2022-11-06T08:43:32.011Z,853.07
2022-11-06T08:44:32.014Z,853.08
2022-11-06T08:45:32.000Z,853.01
2022-11-06T08:46:31.981Z,853.03
2022-11-06T08:47:31.979Z,852.96
2022-11-06T08:48:31.991Z,852.90
2022-11-06T08:49:31.946Z,852.92
2022-11-06T08:50:31.957Z,852.87
2022-11-06T08:51:31.925Z,852.82
2022-11-06T08:52:34.240Z,852.82
2022-11-06T08:53:31.974Z,852.78
2022-11-06T08:54:31.985Z,852.79
2022-11-06T08:55:31.977Z,852.79
2022-11-06T08:56:31.873Z,852.80
2022-11-06T08:57:31.863Z,852.78
2022-11-06T08:58:31.872Z,852.83
2022-11-06T08:59:31.839Z,852.78
2022-11-06T09:00:31.953Z,852.81
2022-11-06T09:01:32.137Z,852.80
2022-11-06T09:02:31.880Z,852.83
2022-11-06T09:03:31.793Z,852.80
2022-11-06T09:04:31.786Z,852.77
2022-11-06T09:05:31.772Z,852.78
2022-11-06T09:06:31.866Z,852.76
2022-11-06T09:07:31.780Z,852.76
2022-11-06T09:08:31.762Z,852.72
2022-11-06T09:09:31.728Z,852.74
2022-11-06T09:10:31.740Z,852.69
2022-11-06T09:11:31.708Z,852.65
2022-11-06T09:12:31.697Z,852.64
2022-11-06T09:13:31.730Z,852.63
2022-11-06T09:14:31.706Z,852.58
2022-11-06T09:15:31.663Z,852.59
2022-11-06T09:16:31.655Z,852.62
2022-11-06T09:17:31.641Z,852.52
2022-11-06T09:18:31.635Z,852.52
2022-11-06T09:19:31.640Z,852.44
2022-11-06T09:20:31.638Z,852.49
2022-11-06T09:21:31.624Z,852.50
2022-11-06T09:22:31.660Z,852.51
2022-11-06T09:23:31.611Z,852.48
2022-11-06T09:24:57.236Z,852.47
2022-11-06T09:25:32.621Z,852.55
2022-11-06T09:26:31.576Z,852.50
2022-11-06T09:27:31.601Z,852.48
2022-11-06T09:28:31.554Z,852.55
2022-11-06T09:29:31.621Z,852.56
2022-11-06T09:30:31.647Z,852.53
2022-11-06T09:31:31.761Z,852.56
2022-11-06T09:32:31.486Z,852.57
2022-11-06T09:33:31.510Z,852.55
2022-11-06T09:34:31.459Z,852.57
2022-11-06T09:35:31.458Z,852.54
2022-11-06T09:36:31.448Z,852.57
2022-11-06T09:37:31.426Z,852.54
2022-11-06T09:38:31.536Z,852.50
2022-11-06T09:39:31.405Z,852.48
2022-11-06T09:40:31.412Z,852.49
2022-11-06T09:41:31.403Z,852.48
2022-11-06T09:42:31.374Z,852.39
2022-11-06T09:44:02.810Z,852.42
2022-11-06T09:44:32.393Z,852.41
2022-11-06T09:45:31.341Z,852.41
2022-11-06T09:46:31.355Z,852.43
2022-11-06T09:47:31.319Z,852.42
2022-11-06T09:48:31.307Z,852.44
2022-11-06T09:49:31.293Z,852.45
2022-11-06T09:50:31.402Z,852.43
2022-11-06T09:51:31.270Z,852.46
2022-11-06T09:52:31.275Z,852.43
2022-11-06T09:53:31.252Z,852.50
2022-11-06T09:54:31.260Z,852.45
2022-11-06T09:55:31.230Z,852.42
2022-11-06T09:56:31.287Z,852.44
2022-11-06T09:57:31.222Z,852.46
2022-11-06T09:58:31.201Z,852.50
2022-11-06T09:59:31.186Z,852.43
2022-11-06T10:00:31.181Z,852.41
2022-11-06T10:01:31.323Z,852.39
2022-11-06T10:02:31.327Z,852.36
2022-11-06T10:03:31.208Z,852.39
2022-11-06T10:04:31.133Z,852.35
2022-11-06T10:05:31.140Z,852.34
2022-11-06T10:06:31.123Z,852.35
2022-11-06T10:07:31.114Z,852.36
2022-11-06T10:08:31.155Z,852.39
2022-11-06T10:09:31.077Z,852.39
2022-11-06T10:10:31.084Z,852.35
2022-11-06T10:11:31.053Z,852.35
2022-11-06T10:12:31.044Z,852.33
2022-11-06T10:13:31.042Z,852.31
2022-11-06T10:14:31.112Z,852.27
2022-11-06T10:15:31.011Z,852.29
2022-11-06T10:16:31.001Z,852.27
2022-11-06T10:17:30.992Z,852.28
2022-11-06T10:18:30.978Z,852.27
2022-11-06T10:19:30.975Z,852.29
2022-11-06T10:20:30.992Z,852.26
2022-11-06T10:21:30.945Z,852.25
2022-11-06T10:22:30.936Z,852.22
2022-11-06T10:23:30.922Z,852.25
2022-11-06T10:24:30.919Z,852.17
2022-11-06T10:25:30.911Z,852.19
2022-11-06T10:26:33.593Z,852.14
2022-11-06T10:27:30.888Z,852.19
2022-11-06T10:28:30.870Z,852.19
2022-11-06T10:29:30.859Z,852.11
2022-11-06T10:30:30.848Z,852.09
2022-11-06T10:31:30.850Z,852.07
2022-11-06T10:32:30.868Z,852.06
2022-11-06T10:33:30.810Z,852.00
2022-11-06T10:34:30.814Z,851.99
2022-11-06T10:35:30.897Z,851.99
2022-11-06T10:36:30.780Z,852.01
2022-11-06T10:37:30.768Z,852.01
2022-11-06T10:38:30.852Z,852.01
2022-11-06T10:39:30.752Z,851.95
2022-11-06T10:40:30.737Z,852.02
2022-11-06T10:41:30.736Z,852.00
2022-11-06T10:42:36.730Z,852.04
2022-11-06T10:43:31.706Z,852.03
2022-11-06T10:44:30.782Z,852.09
2022-11-06T10:45:30.678Z,852.07
2022-11-06T10:46:30.671Z,852.08
2022-11-06T10:47:30.670Z,852.07
2022-11-06T10:48:33.408Z,852.11
2022-11-06T10:49:31.645Z,852.13
2022-11-06T10:50:30.802Z,852.10
2022-11-06T10:51:30.629Z,852.16
2022-11-06T10:52:30.606Z,852.10
2022-11-06T10:53:30.595Z,852.12
2022-11-06T10:54:30.584Z,852.07
2022-11-06T10:55:30.573Z,852.06
2022-11-06T10:56:30.587Z,852.01
2022-11-06T10:57:30.562Z,852.01
2022-11-06T10:58:30.560Z,851.96
2022-11-06T10:59:30.527Z,851.98
2022-11-06T11:00:30.520Z,851.94
2022-11-06T11:01:30.733Z,851.93
2022-11-06T11:02:30.677Z,851.88
2022-11-06T11:03:30.497Z,851.89
2022-11-06T11:04:30.486Z,851.81
2022-11-06T11:05:30.463Z,851.85
2022-11-06T11:06:30.452Z,851.87
2022-11-06T11:07:30.438Z,851.83
2022-11-06T11:08:30.505Z,851.84
2022-11-06T11:09:30.427Z,851.84
2022-11-06T11:10:30.410Z,851.82
2022-11-06T11:11:30.409Z,851.81
2022-11-06T11:12:30.389Z,851.81
2022-11-06T11:13:30.375Z,851.85
2022-11-06T11:14:30.401Z,851.82
2022-11-06T11:15:30.354Z,851.76
2022-11-06T11:16:30.344Z,851.69
2022-11-06T11:17:30.346Z,851.64
2022-11-06T11:18:30.321Z,851.65
2022-11-06T11:19:30.309Z,851.65
2022-11-06T11:20:30.393Z,851.63
2022-11-06T11:21:30.307Z,851.62
2022-11-06T11:22:33.165Z,851.59
2022-11-06T11:23:30.292Z,851.61
2022-11-06T11:24:30.282Z,851.56
2022-11-06T11:25:30.245Z,851.58
2022-11-06T11:26:30.313Z,851.62
2022-11-06T11:27:30.223Z,851.57
2022-11-06T11:28:30.219Z,851.63
2022-11-06T11:29:30.202Z,851.59
2022-11-06T11:30:30.222Z,851.58
2022-11-06T11:31:30.183Z,851.57
2022-11-06T11:32:30.246Z,851.56
2022-11-06T11:33:30.158Z,851.52
2022-11-06T11:34:30.146Z,851.48
2022-11-06T11:35:30.147Z,851.50
2022-11-06T11:36:30.129Z,851.47
2022-11-06T11:37:30.111Z,851.42
2022-11-06T11:38:30.179Z,851.45
2022-11-06T11:39:30.091Z,851.42
2022-11-06T11:40:30.094Z,851.40
2022-11-06T11:41:30.069Z,851.39
2022-11-06T11:42:30.064Z,851.37
2022-11-06T11:43:30.047Z,851.36
2022-11-06T11:44:30.116Z,851.38
2022-11-06T11:45:30.035Z,851.39
2022-11-06T11:46:30.035Z,851.38
2022-11-06T11:47:30.011Z,851.37
2022-11-06T11:48:30.000Z,851.33
2022-11-06T11:49:29.980Z,851.36
2022-11-06T11:50:30.055Z,851.36
2022-11-06T11:51:29.970Z,851.37
2022-11-06T11:52:29.955Z,851.35
2022-11-06T11:53:29.940Z,851.35
2022-11-06T11:54:29.939Z,851.36
2022-11-06T11:55:29.915Z,851.31
2022-11-06T11:56:50.071Z,851.33
2022-11-06T11:57:30.891Z,851.36
2022-11-06T11:58:29.905Z,851.34
2022-11-06T11:59:29.873Z,851.32
2022-11-06T12:00:29.862Z,851.35
2022-11-06T12:01:29.856Z,851.32
2022-11-06T12:02:30.034Z,851.28
2022-11-06T12:03:29.836Z,851.27
2022-11-06T12:04:29.828Z,851.24
2022-11-06T12:05:29.818Z,851.23
2022-11-06T12:06:29.795Z,851.26
2022-11-06T12:07:29.796Z,851.25
2022-11-06T12:08:29.850Z,851.25
2022-11-06T12:09:29.771Z,851.24
2022-11-06T12:10:29.768Z,851.23
2022-11-06T12:11:29.811Z,851.27
2022-11-06T12:12:29.729Z,851.25
2022-11-06T12:13:29.728Z,851.26
2022-11-06T12:14:29.706Z,851.30
2022-11-06T12:15:29.786Z,851.28
2022-11-06T12:16:29.686Z,851.26
2022-11-06T12:17:29.698Z,851.25
2022-11-06T12:18:29.679Z,851.24
2022-11-06T12:19:29.753Z,851.27
2022-11-06T12:20:29.866Z,851.27
2022-11-06T12:21:29.628Z,851.22
2022-11-06T12:22:29.621Z,851.19
2022-11-06T12:23:29.611Z,851.25
2022-11-06T12:24:29.597Z,851.24
2022-11-06T12:25:29.598Z,851.26
2022-11-06T12:26:29.667Z,851.31
2022-11-06T12:27:29.564Z,851.21
2022-11-06T12:28:29.571Z,851.20